sensor_id;sensor_type;location;lat;lon;timestamp;pressure;altitude;pressure_sealevel;temperature;humidity
23172;BME280;11754;42.664;23.594;2024-03-08T00:01:14;95458.81;;;7.52;74.81
23172;BME280;11754;42.664;23.594;2024-03-08T00:07:03;95460.63;;;7.51;75.68
23172;BME280;11754;42.664;23.594;2024-03-08T00:09:29;95461.00;;;7.56;74.70
23172;BME280;11754;42.664;23.594;2024-03-08T00:11:56;95459.78;;;7.51;75.59
23172;BME280;11754;42.664;23.594;2024-03-08T00:14:21;95461.81;;;7.57;75.08
23172;BME280;11754;42.664;23.594;2024-03-08T00:16:47;95449.44;;;7.49;75.23
23172;BME280;11754;42.664;23.594;2024-03-08T00:19:12;95457.16;;;7.51;75.51
23172;BME280;11754;42.664;23.594;2024-03-08T00:21:38;95447.72;;;7.58;75.53
23172;BME280;11754;42.664;23.594;2024-03-08T00:24:03;95454.34;;;7.62;75.20
23172;BME280;11754;42.664;23.594;2024-03-08T00:26:29;95451.84;;;7.60;75.30
23172;BME280;11754;42.664;23.594;2024-03-08T00:28:55;95457.91;;;7.61;75.38
23172;BME280;11754;42.664;23.594;2024-03-08T00:31:21;95449.38;;;7.59;75.47
23172;BME280;11754;42.664;23.594;2024-03-08T00:33:46;95447.22;;;7.54;75.26
23172;BME280;11754;42.664;23.594;2024-03-08T00:36:12;95441.13;;;7.54;75.28
23172;BME280;11754;42.664;23.594;2024-03-08T00:38:37;95441.72;;;7.47;75.30
23172;BME280;11754;42.664;23.594;2024-03-08T00:41:03;95429.94;;;7.52;74.99
23172;BME280;11754;42.664;23.594;2024-03-08T00:43:28;95433.09;;;7.55;75.01
23172;BME280;11754;42.664;23.594;2024-03-08T00:45:55;95433.25;;;7.54;74.55
23172;BME280;11754;42.664;23.594;2024-03-08T00:48:21;95436.19;;;7.51;74.87
23172;BME280;11754;42.664;23.594;2024-03-08T00:50:46;95424.84;;;7.50;75.33
23172;BME280;11754;42.664;23.594;2024-03-08T00:53:31;95422.44;;;7.57;74.97
23172;BME280;11754;42.664;23.594;2024-03-08T00:55:56;95413.28;;;7.61;73.91
23172;BME280;11754;42.664;23.594;2024-03-08T00:58:21;95417.44;;;7.63;73.88
23172;BME280;11754;42.664;23.594;2024-03-08T01:00:49;95413.63;;;7.58;74.27
23172;BME280;11754;42.664;23.594;2024-03-08T01:03:14;95406.09;;;7.45;74.38
23172;BME280;11754;42.664;23.594;2024-03-08T01:05:39;95406.78;;;7.47;74.50
23172;BME280;11754;42.664;23.594;2024-03-08T01:11:30;95401.97;;;7.42;74.46
23172;BME280;11754;42.664;23.594;2024-03-08T01:13:55;95404.69;;;7.51;74.47
23172;BME280;11754;42.664;23.594;2024-03-08T01:16:20;95396.13;;;7.49;74.28
23172;BME280;11754;42.664;23.594;2024-03-08T01:18:46;95397.75;;;7.50;74.47
23172;BME280;11754;42.664;23.594;2024-03-08T01:21:12;95394.47;;;7.47;74.61
23172;BME280;11754;42.664;23.594;2024-03-08T01:23:38;95403.13;;;7.58;74.39
23172;BME280;11754;42.664;23.594;2024-03-08T01:26:04;95386.03;;;7.54;74.09
23172;BME280;11754;42.664;23.594;2024-03-08T01:28:30;95387.19;;;7.59;74.03
23172;BME280;11754;42.664;23.594;2024-03-08T01:30:56;95387.25;;;7.50;74.30
23172;BME280;11754;42.664;23.594;2024-03-08T01:33:25;95395.53;;;7.55;74.14
23172;BME280;11754;42.664;23.594;2024-03-08T01:35:52;95391.28;;;7.54;73.76
23172;BME280;11754;42.664;23.594;2024-03-08T01:38:18;95390.28;;;7.55;73.72
23172;BME280;11754;42.664;23.594;2024-03-08T01:40:44;95394.56;;;7.56;73.44
23172;BME280;11754;42.664;23.594;2024-03-08T01:46:22;95391.16;;;7.45;74.12
23172;BME280;11754;42.664;23.594;2024-03-08T01:49:25;95393.66;;;7.47;74.62
23172;BME280;11754;42.664;23.594;2024-03-08T01:51:51;95393.94;;;7.44;74.51
23172;BME280;11754;42.664;23.594;2024-03-08T01:54:18;95392.59;;;7.40;74.65
23172;BME280;11754;42.664;23.594;2024-03-08T01:56:45;95389.00;;;7.41;74.75
23172;BME280;11754;42.664;23.594;2024-03-08T01:59:11;95393.13;;;7.43;74.71
23172;BME280;11754;42.664;23.594;2024-03-08T02:01:37;95387.44;;;7.48;74.90
23172;BME280;11754;42.664;23.594;2024-03-08T02:04:03;95394.03;;;7.52;74.19
23172;BME280;11754;42.664;23.594;2024-03-08T02:06:28;95382.53;;;7.53;74.13
23172;BME280;11754;42.664;23.594;2024-03-08T02:08:55;95383.69;;;7.51;74.57
23172;BME280;11754;42.664;23.594;2024-03-08T02:11:20;95384.06;;;7.56;74.12
23172;BME280;11754;42.664;23.594;2024-03-08T02:13:46;95388.53;;;7.45;74.84
23172;BME280;11754;42.664;23.594;2024-03-08T02:16:29;95388.84;;;7.42;74.21
23172;BME280;11754;42.664;23.594;2024-03-08T02:18:55;95394.53;;;7.38;74.19
23172;BME280;11754;42.664;23.594;2024-03-08T02:21:21;95393.47;;;7.31;74.99
23172;BME280;11754;42.664;23.594;2024-03-08T02:23:47;95384.41;;;7.25;75.43
23172;BME280;11754;42.664;23.594;2024-03-08T02:26:12;95392.28;;;7.25;75.60
23172;BME280;11754;42.664;23.594;2024-03-08T02:28:38;95383.56;;;7.25;75.65
23172;BME280;11754;42.664;23.594;2024-03-08T02:31:04;95384.09;;;7.28;75.41
23172;BME280;11754;42.664;23.594;2024-03-08T02:33:33;95391.09;;;7.37;74.60
23172;BME280;11754;42.664;23.594;2024-03-08T02:35:58;95396.56;;;7.26;74.86
23172;BME280;11754;42.664;23.594;2024-03-08T02:38:24;95392.66;;;7.30;75.14
23172;BME280;11754;42.664;23.594;2024-03-08T02:40:51;95400.69;;;7.29;75.37
23172;BME280;11754;42.664;23.594;2024-03-08T02:43:17;95395.97;;;7.32;74.94
23172;BME280;11754;42.664;23.594;2024-03-08T02:45:43;95396.25;;;7.29;75.19
23172;BME280;11754;42.664;23.594;2024-03-08T02:48:10;95405.94;;;7.29;75.25
23172;BME280;11754;42.664;23.594;2024-03-08T02:50:36;95408.69;;;7.27;75.41
23172;BME280;11754;42.664;23.594;2024-03-08T02:53:02;95408.69;;;7.27;75.24
23172;BME280;11754;42.664;23.594;2024-03-08T02:55:28;95408.41;;;7.30;75.23
23172;BME280;11754;42.664;23.594;2024-03-08T02:57:54;95411.59;;;7.24;75.34
23172;BME280;11754;42.664;23.594;2024-03-08T03:00:21;95415.22;;;7.23;75.82
23172;BME280;11754;42.664;23.594;2024-03-08T03:02:49;95410.66;;;7.25;75.40
23172;BME280;11754;42.664;23.594;2024-03-08T03:05:19;95402.34;;;7.30;74.70
23172;BME280;11754;42.664;23.594;2024-03-08T03:07:45;95420.97;;;7.27;74.17
23172;BME280;11754;42.664;23.594;2024-03-08T03:10:10;95420.44;;;7.23;73.81
23172;BME280;11754;42.664;23.594;2024-03-08T03:12:39;95415.22;;;7.23;73.68
23172;BME280;11754;42.664;23.594;2024-03-08T03:15:04;95411.91;;;7.21;73.39
23172;BME280;11754;42.664;23.594;2024-03-08T03:17:31;95421.72;;;7.19;73.18
23172;BME280;11754;42.664;23.594;2024-03-08T03:19:57;95420.91;;;7.18;72.79
23172;BME280;11754;42.664;23.594;2024-03-08T03:22:22;95421.56;;;7.20;72.78
23172;BME280;11754;42.664;23.594;2024-03-08T03:24:48;95420.38;;;7.15;72.81
23172;BME280;11754;42.664;23.594;2024-03-08T03:27:14;95426.88;;;7.11;72.90
23172;BME280;11754;42.664;23.594;2024-03-08T03:29:41;95435.03;;;7.08;72.67
23172;BME280;11754;42.664;23.594;2024-03-08T03:32:13;95428.13;;;7.07;73.10
23172;BME280;11754;42.664;23.594;2024-03-08T03:34:42;95429.53;;;7.01;73.52
23172;BME280;11754;42.664;23.594;2024-03-08T03:37:09;95431.47;;;6.99;73.45
23172;BME280;11754;42.664;23.594;2024-03-08T03:39:38;95427.66;;;6.93;73.40
23172;BME280;11754;42.664;23.594;2024-03-08T03:42:17;95434.00;;;6.91;73.24
23172;BME280;11754;42.664;23.594;2024-03-08T03:44:47;95444.53;;;6.81;72.89
23172;BME280;11754;42.664;23.594;2024-03-08T03:47:13;95445.69;;;6.69;73.11
23172;BME280;11754;42.664;23.594;2024-03-08T03:49:42;95450.63;;;6.72;72.96
23172;BME280;11754;42.664;23.594;2024-03-08T03:52:08;95444.97;;;6.67;72.75
23172;BME280;11754;42.664;23.594;2024-03-08T03:54:34;95451.22;;;6.56;73.46
23172;BME280;11754;42.664;23.594;2024-03-08T03:57:00;95449.28;;;6.58;73.98
23172;BME280;11754;42.664;23.594;2024-03-08T03:59:28;95454.97;;;6.54;73.97
23172;BME280;11754;42.664;23.594;2024-03-08T04:01:54;95453.19;;;6.44;74.66
23172;BME280;11754;42.664;23.594;2024-03-08T04:04:20;95451.81;;;6.40;74.86
23172;BME280;11754;42.664;23.594;2024-03-08T04:06:45;95462.28;;;6.40;75.28
23172;BME280;11754;42.664;23.594;2024-03-08T04:09:11;95457.91;;;6.31;75.65
23172;BME280;11754;42.664;23.594;2024-03-08T04:11:38;95466.16;;;6.36;75.33
23172;BME280;11754;42.664;23.594;2024-03-08T04:14:06;95470.03;;;6.32;75.41
23172;BME280;11754;42.664;23.594;2024-03-08T04:16:32;95470.31;;;6.29;75.93
23172;BME280;11754;42.664;23.594;2024-03-08T04:18:58;95463.16;;;6.31;76.04
23172;BME280;11754;42.664;23.594;2024-03-08T04:21:23;95470.84;;;6.33;75.71
23172;BME280;11754;42.664;23.594;2024-03-08T04:23:49;95479.16;;;6.28;75.69
23172;BME280;11754;42.664;23.594;2024-03-08T04:26:14;95473.34;;;6.24;75.92
23172;BME280;11754;42.664;23.594;2024-03-08T04:28:40;95476.66;;;6.26;75.73
23172;BME280;11754;42.664;23.594;2024-03-08T04:31:05;95480.25;;;6.25;76.27
23172;BME280;11754;42.664;23.594;2024-03-08T04:33:32;95489.91;;;6.25;76.27
23172;BME280;11754;42.664;23.594;2024-03-08T04:35:57;95487.13;;;6.26;76.42
23172;BME280;11754;42.664;23.594;2024-03-08T04:38:23;95489.91;;;6.25;76.36
23172;BME280;11754;42.664;23.594;2024-03-08T04:40:50;95496.78;;;6.26;76.15
23172;BME280;11754;42.664;23.594;2024-03-08T04:43:15;95491.00;;;6.32;75.02
23172;BME280;11754;42.664;23.594;2024-03-08T04:45:43;95496.50;;;6.29;74.69
23172;BME280;11754;42.664;23.594;2024-03-08T04:48:09;95500.38;;;6.25;74.94
23172;BME280;11754;42.664;23.594;2024-03-08T04:50:34;95492.09;;;6.20;75.17
23172;BME280;11754;42.664;23.594;2024-03-08T04:53:00;95500.09;;;6.18;74.96
23172;BME280;11754;42.664;23.594;2024-03-08T04:55:25;95499.41;;;6.26;74.74
23172;BME280;11754;42.664;23.594;2024-03-08T04:57:51;95506.72;;;6.32;73.94
23172;BME280;11754;42.664;23.594;2024-03-08T05:00:16;95507.53;;;6.33;74.03
23172;BME280;11754;42.664;23.594;2024-03-08T05:02:42;95510.31;;;6.31;73.56
23172;BME280;11754;42.664;23.594;2024-03-08T05:11:53;95513.16;;;6.38;73.35
23172;BME280;11754;42.664;23.594;2024-03-08T05:14:19;95516.06;;;6.44;73.28
23172;BME280;11754;42.664;23.594;2024-03-08T05:16:46;95512.78;;;6.42;72.76
23172;BME280;11754;42.664;23.594;2024-03-08T05:19:18;95518.69;;;6.44;72.36
23172;BME280;11754;42.664;23.594;2024-03-08T05:21:48;95519.94;;;6.40;72.38
23172;BME280;11754;42.664;23.594;2024-03-08T05:24:14;95527.63;;;6.52;71.85
23172;BME280;11754;42.664;23.594;2024-03-08T05:26:42;95527.38;;;6.55;71.89
23172;BME280;11754;42.664;23.594;2024-03-08T05:29:08;95526.66;;;6.72;71.94
23172;BME280;11754;42.664;23.594;2024-03-08T05:31:54;95530.47;;;6.78;71.48
23172;BME280;11754;42.664;23.594;2024-03-08T05:34:21;95534.19;;;6.94;70.56
23172;BME280;11754;42.664;23.594;2024-03-08T05:36:47;95531.66;;;7.03;69.83
23172;BME280;11754;42.664;23.594;2024-03-08T05:39:15;95550.84;;;7.03;69.22
23172;BME280;11754;42.664;23.594;2024-03-08T05:41:41;95550.56;;;7.06;69.36
23172;BME280;11754;42.664;23.594;2024-03-08T05:44:08;95553.22;;;6.96;69.89
23172;BME280;11754;42.664;23.594;2024-03-08T05:46:34;95559.84;;;6.91;69.34
23172;BME280;11754;42.664;23.594;2024-03-08T05:49:01;95562.19;;;6.94;68.99
23172;BME280;11754;42.664;23.594;2024-03-08T05:51:33;95560.84;;;6.80;68.93
23172;BME280;11754;42.664;23.594;2024-03-08T05:54:02;95573.97;;;6.70;69.08
23172;BME280;11754;42.664;23.594;2024-03-08T05:56:29;95567.34;;;6.66;69.66
23172;BME280;11754;42.664;23.594;2024-03-08T05:59:04;95577.56;;;6.69;69.50
23172;BME280;11754;42.664;23.594;2024-03-08T06:01:29;95573.84;;;6.72;69.83
23172;BME280;11754;42.664;23.594;2024-03-08T06:03:57;95581.28;;;6.77;69.58
23172;BME280;11754;42.664;23.594;2024-03-08T06:06:23;95585.28;;;6.71;69.54
23172;BME280;11754;42.664;23.594;2024-03-08T06:08:50;95582.91;;;6.87;68.93
23172;BME280;11754;42.664;23.594;2024-03-08T06:11:16;95582.78;;;6.79;69.08
23172;BME280;11754;42.664;23.594;2024-03-08T06:13:46;95566.63;;;6.74;69.45
23172;BME280;11754;42.664;23.594;2024-03-08T06:16:11;95589.63;;;6.99;68.69
23172;BME280;11754;42.664;23.594;2024-03-08T06:18:37;95585.38;;;6.98;69.10
23172;BME280;11754;42.664;23.594;2024-03-08T06:21:04;95593.78;;;7.12;68.52
23172;BME280;11754;42.664;23.594;2024-03-08T06:23:33;95594.88;;;6.99;68.90
23172;BME280;11754;42.664;23.594;2024-03-08T06:25:58;95589.06;;;7.06;69.05
23172;BME280;11754;42.664;23.594;2024-03-08T06:28:24;95594.28;;;7.25;67.75
23172;BME280;11754;42.664;23.594;2024-03-08T06:30:50;95604.34;;;7.30;68.06
23172;BME280;11754;42.664;23.594;2024-03-08T06:33:17;95594.50;;;7.41;67.84
23172;BME280;11754;42.664;23.594;2024-03-08T06:35:42;95595.00;;;7.55;67.22
23172;BME280;11754;42.664;23.594;2024-03-08T06:38:07;95595.81;;;7.65;66.37
23172;BME280;11754;42.664;23.594;2024-03-08T06:40:33;95600.16;;;7.74;65.21
23172;BME280;11754;42.664;23.594;2024-03-08T06:42:58;95606.78;;;7.78;64.82
23172;BME280;11754;42.664;23.594;2024-03-08T06:45:24;95602.00;;;7.91;64.69
23172;BME280;11754;42.664;23.594;2024-03-08T06:47:51;95607.63;;;7.97;64.08
23172;BME280;11754;42.664;23.594;2024-03-08T06:50:16;95601.16;;;8.01;63.94
23172;BME280;11754;42.664;23.594;2024-03-08T06:52:42;95602.13;;;8.17;63.58
23172;BME280;11754;42.664;23.594;2024-03-08T06:55:09;95607.63;;;8.24;63.23
23172;BME280;11754;42.664;23.594;2024-03-08T06:57:40;95599.25;;;8.38;62.72
23172;BME280;11754;42.664;23.594;2024-03-08T07:00:09;95608.56;;;8.51;62.29
23172;BME280;11754;42.664;23.594;2024-03-08T07:02:37;95610.25;;;8.52;61.92
23172;BME280;11754;42.664;23.594;2024-03-08T07:05:05;95605.63;;;8.54;61.43
23172;BME280;11754;42.664;23.594;2024-03-08T07:07:31;95614.22;;;8.56;62.44
23172;BME280;11754;42.664;23.594;2024-03-08T07:09:57;95614.66;;;8.69;61.97
23172;BME280;11754;42.664;23.594;2024-03-08T07:12:22;95607.19;;;8.82;61.35
23172;BME280;11754;42.664;23.594;2024-03-08T07:14:49;95610.28;;;8.96;60.43
23172;BME280;11754;42.664;23.594;2024-03-08T07:17:14;95610.78;;;8.99;59.73
23172;BME280;11754;42.664;23.594;2024-03-08T07:19:40;95616.31;;;9.14;60.18
23172;BME280;11754;42.664;23.594;2024-03-08T07:22:05;95612.31;;;9.28;58.58
23172;BME280;11754;42.664;23.594;2024-03-08T07:24:37;95613.88;;;9.38;58.60
23172;BME280;11754;42.664;23.594;2024-03-08T07:27:04;95622.00;;;9.53;57.73
23172;BME280;11754;42.664;23.594;2024-03-08T07:29:30;95623.25;;;9.67;57.30
23172;BME280;11754;42.664;23.594;2024-03-08T07:38:39;95616.63;;;10.48;56.71
23172;BME280;11754;42.664;23.594;2024-03-08T07:41:05;95616.66;;;10.64;55.15
23172;BME280;11754;42.664;23.594;2024-03-08T07:43:31;95619.28;;;10.89;53.32
23172;BME280;11754;42.664;23.594;2024-03-08T07:45:57;95620.31;;;10.71;53.51
23172;BME280;11754;42.664;23.594;2024-03-08T07:48:48;95618.50;;;10.96;53.62
23172;BME280;11754;42.664;23.594;2024-03-08T07:51:16;95609.41;;;11.15;53.67
23172;BME280;11754;42.664;23.594;2024-03-08T07:53:43;95610.66;;;11.52;52.28
23172;BME280;11754;42.664;23.594;2024-03-08T07:56:08;95609.94;;;11.74;50.25
23172;BME280;11754;42.664;23.594;2024-03-08T07:58:38;95619.03;;;11.88;49.33
23172;BME280;11754;42.664;23.594;2024-03-08T08:01:06;95605.94;;;11.95;49.46
23172;BME280;11754;42.664;23.594;2024-03-08T08:03:31;95609.84;;;12.07;48.89
23172;BME280;11754;42.664;23.594;2024-03-08T08:05:56;95615.13;;;12.15;49.01
23172;BME280;11754;42.664;23.594;2024-03-08T08:11:43;95607.38;;;12.37;48.40
23172;BME280;11754;42.664;23.594;2024-03-08T08:14:09;95610.34;;;12.42;47.49
23172;BME280;11754;42.664;23.594;2024-03-08T08:16:36;95604.31;;;12.56;47.31
23172;BME280;11754;42.664;23.594;2024-03-08T08:19:06;95601.13;;;12.84;47.34
23172;BME280;11754;42.664;23.594;2024-03-08T08:21:35;95597.03;;;13.19;46.54
23172;BME280;11754;42.664;23.594;2024-03-08T08:24:04;95606.41;;;13.30;45.27
23172;BME280;11754;42.664;23.594;2024-03-08T08:26:29;95607.34;;;13.37;44.32
23172;BME280;11754;42.664;23.594;2024-03-08T08:28:55;95602.69;;;13.39;44.58
23172;BME280;11754;42.664;23.594;2024-03-08T08:31:21;95603.72;;;13.67;44.51
23172;BME280;11754;42.664;23.594;2024-03-08T08:33:46;95601.44;;;13.94;43.94
23172;BME280;11754;42.664;23.594;2024-03-08T08:36:20;95599.09;;;14.50;43.15
23172;BME280;11754;42.664;23.594;2024-03-08T08:38:45;95597.94;;;14.59;41.78
23172;BME280;11754;42.664;23.594;2024-03-08T08:41:11;95597.88;;;14.53;42.21
23172;BME280;11754;42.664;23.594;2024-03-08T08:43:36;95602.91;;;14.84;40.98
23172;BME280;11754;42.664;23.594;2024-03-08T08:46:02;95601.88;;;14.85;41.15
23172;BME280;11754;42.664;23.594;2024-03-08T08:48:31;95600.25;;;14.84;40.85
23172;BME280;11754;42.664;23.594;2024-03-08T08:50:56;95601.88;;;14.85;41.47
23172;BME280;11754;42.664;23.594;2024-03-08T08:53:22;95600.72;;;15.37;39.50
23172;BME280;11754;42.664;23.594;2024-03-08T08:55:47;95591.91;;;15.93;38.91
23172;BME280;11754;42.664;23.594;2024-03-08T08:58:13;95580.47;;;16.53;38.50
23172;BME280;11754;42.664;23.594;2024-03-08T09:00:39;95592.78;;;16.54;37.39
23172;BME280;11754;42.664;23.594;2024-03-08T09:03:05;95581.00;;;16.97;36.77
23172;BME280;11754;42.664;23.594;2024-03-08T09:05:32;95584.72;;;17.16;36.24
23172;BME280;11754;42.664;23.594;2024-03-08T09:07:59;95576.91;;;17.61;36.53
23172;BME280;11754;42.664;23.594;2024-03-08T09:10:25;95580.03;;;18.29;34.99
23172;BME280;11754;42.664;23.594;2024-03-08T09:12:50;95571.75;;;18.44;34.37
23172;BME280;11754;42.664;23.594;2024-03-08T09:15:16;95574.56;;;18.56;33.60
23172;BME280;11754;42.664;23.594;2024-03-08T09:17:45;95574.72;;;18.29;33.65
23172;BME280;11754;42.664;23.594;2024-03-08T09:20:10;95575.63;;;17.96;33.59
23172;BME280;11754;42.664;23.594;2024-03-08T09:29:24;95581.31;;;16.61;36.12
23172;BME280;11754;42.664;23.594;2024-03-08T09:31:49;95577.97;;;16.39;36.30
23172;BME280;11754;42.664;23.594;2024-03-08T09:34:15;95585.63;;;16.07;36.15
23172;BME280;11754;42.664;23.594;2024-03-08T09:36:40;95580.22;;;15.87;36.55
23172;BME280;11754;42.664;23.594;2024-03-08T09:39:06;95580.31;;;15.66;36.66
23172;BME280;11754;42.664;23.594;2024-03-08T09:41:33;95586.13;;;15.54;37.09
23172;BME280;11754;42.664;23.594;2024-03-08T09:43:59;95584.84;;;15.50;37.87
23172;BME280;11754;42.664;23.594;2024-03-08T09:46:25;95581.09;;;15.38;37.55
23172;BME280;11754;42.664;23.594;2024-03-08T09:48:53;95587.53;;;15.22;37.25
23172;BME280;11754;42.664;23.594;2024-03-08T09:51:22;95582.03;;;15.02;37.85
23172;BME280;11754;42.664;23.594;2024-03-08T09:53:52;95581.16;;;14.95;38.76
23172;BME280;11754;42.664;23.594;2024-03-08T09:56:19;95582.69;;;14.83;39.47
23172;BME280;11754;42.664;23.594;2024-03-08T09:58:45;95577.69;;;14.95;38.34
23172;BME280;11754;42.664;23.594;2024-03-08T10:01:40;95584.56;;;14.89;38.61
23172;BME280;11754;42.664;23.594;2024-03-08T10:04:06;95590.00;;;14.81;38.40
23172;BME280;11754;42.664;23.594;2024-03-08T10:06:31;95590.75;;;14.75;38.18
23172;BME280;11754;42.664;23.594;2024-03-08T10:08:57;95592.41;;;14.76;39.29
23172;BME280;11754;42.664;23.594;2024-03-08T10:11:24;95586.97;;;15.05;39.18
23172;BME280;11754;42.664;23.594;2024-03-08T10:13:50;95590.41;;;15.27;37.96
23172;BME280;11754;42.664;23.594;2024-03-08T10:16:16;95582.38;;;15.21;37.90
23172;BME280;11754;42.664;23.594;2024-03-08T10:18:47;95581.28;;;15.08;38.16
23172;BME280;11754;42.664;23.594;2024-03-08T10:21:12;95578.47;;;15.17;37.98
23172;BME280;11754;42.664;23.594;2024-03-08T10:23:39;95579.59;;;15.29;37.70
23172;BME280;11754;42.664;23.594;2024-03-08T10:26:17;95580.56;;;15.49;36.88
23172;BME280;11754;42.664;23.594;2024-03-08T10:28:48;95565.91;;;15.88;37.07
23172;BME280;11754;42.664;23.594;2024-03-08T10:31:14;95564.50;;;16.47;36.24
23172;BME280;11754;42.664;23.594;2024-03-08T10:33:40;95559.91;;;16.89;35.63
23172;BME280;11754;42.664;23.594;2024-03-08T10:36:10;95563.41;;;17.29;34.04
23172;BME280;11754;42.664;23.594;2024-03-08T10:38:37;95555.00;;;17.32;34.07
23172;BME280;11754;42.664;23.594;2024-03-08T10:41:10;95552.94;;;17.08;34.25
23172;BME280;11754;42.664;23.594;2024-03-08T10:49:17;95560.81;;;16.41;35.29
23172;BME280;11754;42.664;23.594;2024-03-08T10:51:49;95552.47;;;16.03;36.52
23172;BME280;11754;42.664;23.594;2024-03-08T10:54:25;95553.81;;;15.85;36.84
23172;BME280;11754;42.664;23.594;2024-03-08T10:56:51;95555.81;;;15.77;37.21
23172;BME280;11754;42.664;23.594;2024-03-08T10:59:18;95559.25;;;15.71;36.64
23172;BME280;11754;42.664;23.594;2024-03-08T11:01:44;95553.50;;;15.67;37.27
23172;BME280;11754;42.664;23.594;2024-03-08T11:04:10;95557.88;;;15.53;37.01
23172;BME280;11754;42.664;23.594;2024-03-08T11:09:11;95556.38;;;15.66;37.74
23172;BME280;11754;42.664;23.594;2024-03-08T11:11:42;95536.00;;;15.86;37.15
23172;BME280;11754;42.664;23.594;2024-03-08T11:14:43;95541.41;;;15.99;36.53
23172;BME280;11754;42.664;23.594;2024-03-08T11:17:09;95533.94;;;16.23;36.94
23172;BME280;11754;42.664;23.594;2024-03-08T11:19:34;95529.78;;;17.28;35.71
23172;BME280;11754;42.664;23.594;2024-03-08T11:22:01;95531.47;;;18.45;32.54
23172;BME280;11754;42.664;23.594;2024-03-08T11:24:28;95517.91;;;20.15;31.02
23172;BME280;11754;42.664;23.594;2024-03-08T11:27:03;95513.66;;;23.13;28.30
23172;BME280;11754;42.664;23.594;2024-03-08T11:32:16;95501.72;;;24.64;24.66
23172;BME280;11754;42.664;23.594;2024-03-08T11:34:46;95503.97;;;24.73;24.89
23172;BME280;11754;42.664;23.594;2024-03-08T11:37:35;95500.38;;;24.40;24.52
23172;BME280;11754;42.664;23.594;2024-03-08T11:40:01;95500.84;;;23.93;24.90
23172;BME280;11754;42.664;23.594;2024-03-08T11:42:30;95478.84;;;27.15;22.60
23172;BME280;11754;42.664;23.594;2024-03-08T11:44:56;95468.44;;;30.43;19.87
23172;BME280;11754;42.664;23.594;2024-03-08T11:47:22;95471.47;;;29.35;19.19
23172;BME280;11754;42.664;23.594;2024-03-08T11:49:47;95477.75;;;27.36;21.33
23172;BME280;11754;42.664;23.594;2024-03-08T11:52:17;95474.81;;;26.24;22.30
23172;BME280;11754;42.664;23.594;2024-03-08T11:54:48;95475.69;;;25.39;22.72
23172;BME280;11754;42.664;23.594;2024-03-08T11:57:28;95479.25;;;24.32;23.63
23172;BME280;11754;42.664;23.594;2024-03-08T11:59:55;95477.34;;;23.33;24.66
23172;BME280;11754;42.664;23.594;2024-03-08T12:02:30;95484.38;;;22.14;25.32
23172;BME280;11754;42.664;23.594;2024-03-08T12:05:00;95488.09;;;21.73;26.50
23172;BME280;11754;42.664;23.594;2024-03-08T12:07:29;95486.88;;;21.92;26.21
23172;BME280;11754;42.664;23.594;2024-03-08T12:10:16;95485.75;;;22.28;25.83
23172;BME280;11754;42.664;23.594;2024-03-08T12:12:46;95479.97;;;23.27;24.47
23172;BME280;11754;42.664;23.594;2024-03-08T12:15:13;95480.38;;;23.02;24.97
23172;BME280;11754;42.664;23.594;2024-03-08T12:17:40;95479.50;;;22.68;25.61
23172;BME280;11754;42.664;23.594;2024-03-08T12:20:20;95489.53;;;22.04;26.06
23172;BME280;11754;42.664;23.594;2024-03-08T12:22:49;95476.53;;;21.49;26.95
23172;BME280;11754;42.664;23.594;2024-03-08T12:25:17;95476.38;;;20.97;27.02
23172;BME280;11754;42.664;23.594;2024-03-08T12:27:43;95481.22;;;20.64;27.84
23172;BME280;11754;42.664;23.594;2024-03-08T12:30:22;95487.66;;;19.78;28.53
23172;BME280;11754;42.664;23.594;2024-03-08T12:32:50;95484.66;;;19.50;29.21
23172;BME280;11754;42.664;23.594;2024-03-08T12:35:21;95482.44;;;19.21;29.62
23172;BME280;11754;42.664;23.594;2024-03-08T12:37:49;95484.25;;;19.03;30.40
23172;BME280;11754;42.664;23.594;2024-03-08T12:40:17;95472.03;;;18.88;30.72
23172;BME280;11754;42.664;23.594;2024-03-08T12:42:45;95472.69;;;18.52;31.36
23172;BME280;11754;42.664;23.594;2024-03-08T12:45:14;95474.97;;;18.10;32.53
23172;BME280;11754;42.664;23.594;2024-03-08T12:47:39;95473.06;;;17.66;32.65
23172;BME280;11754;42.664;23.594;2024-03-08T12:50:08;95470.09;;;17.36;33.61
23172;BME280;11754;42.664;23.594;2024-03-08T12:52:34;95470.28;;;17.41;33.39
23172;BME280;11754;42.664;23.594;2024-03-08T12:55:00;95470.50;;;17.39;33.58
23172;BME280;11754;42.664;23.594;2024-03-08T12:57:28;95468.41;;;17.48;33.64
23172;BME280;11754;42.664;23.594;2024-03-08T12:59:54;95458.09;;;18.86;31.53
23172;BME280;11754;42.664;23.594;2024-03-08T13:02:26;95460.56;;;22.46;27.71
23172;BME280;11754;42.664;23.594;2024-03-08T13:04:51;95435.41;;;29.25;21.34
23172;BME280;11754;42.664;23.594;2024-03-08T13:07:23;95444.44;;;30.88;18.47
23172;BME280;11754;42.664;23.594;2024-03-08T13:09:52;95430.97;;;33.40;16.84
23172;BME280;11754;42.664;23.594;2024-03-08T13:12:17;95417.75;;;37.59;13.93
23172;BME280;11754;42.664;23.594;2024-03-08T13:14:43;95413.34;;;41.50;12.03
23172;BME280;11754;42.664;23.594;2024-03-08T13:17:08;95415.34;;;43.99;10.32
23172;BME280;11754;42.664;23.594;2024-03-08T13:19:36;95394.47;;;46.52;9.01
23172;BME280;11754;42.664;23.594;2024-03-08T13:22:03;95404.63;;;48.07;8.02
23172;BME280;11754;42.664;23.594;2024-03-08T13:24:32;95401.84;;;48.52;8.19
23172;BME280;11754;42.664;23.594;2024-03-08T13:27:01;95394.53;;;50.18;6.96
23172;BME280;11754;42.664;23.594;2024-03-08T13:29:27;95401.88;;;50.09;6.84
23172;BME280;11754;42.664;23.594;2024-03-08T13:31:52;95389.47;;;51.00;6.86
23172;BME280;11754;42.664;23.594;2024-03-08T13:34:21;95394.16;;;52.32;6.03
23172;BME280;11754;42.664;23.594;2024-03-08T13:36:53;95387.19;;;52.98;6.35
23172;BME280;11754;42.664;23.594;2024-03-08T13:39:24;95385.41;;;53.04;5.66
23172;BME280;11754;42.664;23.594;2024-03-08T13:41:51;95393.94;;;51.90;6.03